Time;durP1;ratioP1;P1;durP2;ratioP2;P2;SDS_P1;SDS_P2;PMS_P1;PMS_P2;Temp;Humidity;BMP_temperature;BMP_pressure;BME280_temperature;BME280_humidity;BME280_pressure;Samples;Min_cycle;Max_cycle;Signal;HPM_P1;HPM_P2
2023/12/13 00:01:43;;;;;;;1.98;0.95;;;;;;;8.97;56.49;99373.25;4936675;28;20129;-74
2023/12/13 00:04:11;;;;;;;3.88;1.15;;;;;;;8.96;56.38;99371.53;4939479;28;20059;-73
2023/12/13 00:06:39;;;;;;;2.53;1.00;;;;;;;8.95;56.32;99368.97;4936347;28;20074;-74
2023/12/13 00:09:08;;;;;;;2.35;1.05;;;;;;;8.95;56.29;99372.53;4937660;28;20039;-74
2023/12/13 00:11:36;;;;;;;1.73;1.00;;;;;;;8.93;55.93;99360.94;4920441;29;20067;-73
2023/12/13 00:14:04;;;;;;;2.80;1.00;;;;;;;8.92;55.87;99364.66;4916868;28;20054;-73
2023/12/13 00:16:33;;;;;;;4.28;1.60;;;;;;;8.92;56.05;99361.09;4942064;28;20073;-73
2023/12/13 00:19:01;;;;;;;2.97;1.13;;;;;;;8.90;56.19;99357.69;4923187;28;20095;-74
2023/12/13 00:21:29;;;;;;;4.25;1.10;;;;;;;8.90;55.97;99363.13;4917573;29;20047;-73
2023/12/13 00:23:57;;;;;;;2.03;0.93;;;;;;;8.89;56.15;99372.34;4941254;28;20500;-74
2023/12/13 00:26:25;;;;;;;3.08;1.30;;;;;;;8.88;56.12;99373.34;4931646;29;20032;-73
2023/12/13 00:28:53;;;;;;;3.97;1.25;;;;;;;8.87;55.75;99371.63;4935298;28;20043;-74
2023/12/13 00:31:21;;;;;;;2.15;1.00;;;;;;;8.85;56.12;99370.94;4919696;29;20050;-73
2023/12/13 00:33:50;;;;;;;2.00;0.98;;;;;;;8.85;55.52;99366.31;4930948;28;20400;-74
2023/12/13 00:36:18;;;;;;;2.55;1.00;;;;;;;8.83;55.94;99371.13;4931938;28;20051;-74
2023/12/13 00:38:46;;;;;;;2.13;0.98;;;;;;;8.81;55.83;99369.53;4937231;28;20051;-73
2023/12/13 00:41:14;;;;;;;2.60;0.98;;;;;;;8.81;55.65;99358.63;4928436;29;20043;-74
2023/12/13 00:43:42;;;;;;;3.30;1.08;;;;;;;8.79;55.88;99355.19;4936187;28;20462;-75
2023/12/13 00:46:14;;;;;;;1.80;0.90;;;;;;;8.79;55.24;99355.19;4947471;28;20070;-74
2023/12/13 00:48:42;;;;;;;2.25;0.93;;;;;;;8.74;55.80;99350.25;4935487;28;20039;-74
2023/12/13 00:51:17;;;;;;;1.98;0.82;;;;;;;8.77;55.58;99358.09;4940608;28;20078;-74
2023/12/13 00:53:45;;;;;;;2.60;0.90;;;;;;;8.73;55.96;99353.97;4941806;28;20142;-75
2023/12/13 00:56:14;;;;;;;2.78;0.90;;;;;;;8.74;55.87;99357.56;4935034;28;20063;-75
2023/12/13 00:58:42;;;;;;;1.90;1.15;;;;;;;8.74;55.79;99352.09;4919609;29;20403;-74
2023/12/13 01:01:10;;;;;;;2.63;1.20;;;;;;;8.73;55.61;99351.25;4941802;28;20585;-75
2023/12/13 01:03:38;;;;;;;2.35;1.10;;;;;;;8.71;55.78;99351.41;4929952;28;20134;-74
2023/12/13 01:06:09;;;;;;;1.65;0.88;;;;;;;8.72;55.48;99360.44;4939455;28;20039;-74
2023/12/13 01:08:39;;;;;;;2.03;0.85;;;;;;;8.72;55.76;99374.09;4935725;28;20036;-74
2023/12/13 01:11:10;;;;;;;2.28;0.95;;;;;;;8.72;55.29;99365.91;4941601;28;20233;-75
2023/12/13 01:13:38;;;;;;;2.88;0.90;;;;;;;8.70;55.72;99370.66;4943112;28;20067;-76
2023/12/13 01:16:07;;;;;;;2.47;1.00;;;;;;;8.69;55.37;99367.06;4932830;28;20130;-74
2023/12/13 01:18:35;;;;;;;2.55;0.80;;;;;;;8.69;55.74;99368.94;4924273;28;20126;-75
2023/12/13 01:21:03;;;;;;;1.35;0.57;;;;;;;8.67;55.78;99357.34;4939518;28;20055;-75
2023/12/13 01:23:31;;;;;;;3.03;0.85;;;;;;;8.66;55.69;99361.09;4936903;28;20039;-74
2023/12/13 01:26:01;;;;;;;1.88;0.90;;;;;;;8.67;55.46;99371.00;4936189;28;20408;-74
2023/12/13 01:28:29;;;;;;;1.92;0.80;;;;;;;8.65;55.39;99356.66;4937140;28;20116;-74
2023/12/13 01:30:57;;;;;;;3.17;1.40;;;;;;;8.64;55.67;99349.47;4933743;28;20048;-75
2023/12/13 01:33:25;;;;;;;2.35;0.98;;;;;;;8.64;55.47;99349.47;4939680;28;20545;-75
2023/12/13 01:35:53;;;;;;;1.95;0.73;;;;;;;8.63;55.86;99356.81;4925625;28;20404;-75
2023/12/13 01:38:21;;;;;;;2.05;0.90;;;;;;;8.64;55.84;99363.13;4940638;29;20446;-75
2023/12/13 01:40:51;;;;;;;3.45;0.98;;;;;;;8.63;55.76;99367.72;4934851;28;20044;-74
2023/12/13 01:43:40;;;;;;;3.00;1.00;;;;;;;8.61;55.57;99366.16;4923348;28;20370;-74
2023/12/13 01:46:09;;;;;;;1.20;0.75;;;;;;;8.61;55.85;99367.00;4926460;28;20062;-74
2023/12/13 01:48:37;;;;;;;1.80;0.70;;;;;;;8.61;55.51;99366.16;4933040;28;20573;-74
2023/12/13 01:51:06;;;;;;;1.83;0.90;;;;;;;8.62;56.00;99366.00;4940366;28;20059;-75
2023/12/13 01:53:35;;;;;;;1.92;0.80;;;;;;;8.60;55.57;99354.38;4921294;29;20147;-74
2023/12/13 01:56:05;;;;;;;3.22;1.00;;;;;;;8.62;55.56;99365.13;4940037;28;20047;-75
2023/12/13 01:58:36;;;;;;;1.05;0.80;;;;;;;8.61;55.71;99366.16;4933957;28;20558;-74
2023/12/13 02:01:07;;;;;;;1.88;0.80;;;;;;;8.61;55.55;99358.81;4929156;28;20039;-74
2023/12/13 02:03:38;;;;;;;2.45;0.90;;;;;;;8.60;55.65;99356.25;4920334;28;20040;-75
2023/12/13 02:06:06;;;;;;;3.03;0.90;;;;;;;8.60;55.87;99358.97;4937516;28;20397;-75
2023/12/13 02:08:35;;;;;;;3.42;1.00;;;;;;;8.60;55.69;99358.97;4934139;28;20039;-75
2023/12/13 02:11:02;;;;;;;2.65;1.17;;;;;;;8.60;56.14;99357.09;4921243;28;20054;-75
2023/12/13 02:13:30;;;;;;;2.00;0.80;;;;;;;8.60;55.96;99353.53;4938134;28;20469;-74
2023/12/13 02:15:59;;;;;;;2.72;0.90;;;;;;;8.59;55.85;99358.13;4928727;29;20119;-75
2023/12/13 02:18:29;;;;;;;3.13;1.00;;;;;;;8.61;55.68;99350.63;4939666;28;20057;-74
2023/12/13 02:20:57;;;;;;;1.98;0.80;;;;;;;8.59;55.68;99352.66;4927318;28;20409;-74
2023/12/13 02:23:26;;;;;;;3.03;1.00;;;;;;;8.60;55.37;99357.09;4928248;28;20051;-75
2023/12/13 02:25:59;;;;;;;1.60;0.73;;;;;;;8.60;55.90;99348.91;4939382;28;20052;-74
2023/12/13 02:28:28;;;;;;;2.35;0.73;;;;;;;8.57;55.82;99354.72;4940007;28;20476;-75
2023/12/13 02:30:58;;;;;;;1.88;0.75;;;;;;;8.59;55.67;99349.94;4913752;29;20050;-74
2023/12/13 02:33:27;;;;;;;2.25;0.90;;;;;;;8.58;55.75;99345.53;4939598;28;20103;-74
2023/12/13 02:35:56;;;;;;;3.03;0.80;;;;;;;8.59;55.47;99338.16;4939469;28;20078;-74
2023/12/13 02:38:25;;;;;;;1.85;0.90;;;;;;;8.57;55.67;99335.63;4939811;28;20122;-75
2023/12/13 02:40:53;;;;;;;2.55;0.80;;;;;;;8.56;55.83;99328.47;4936870;28;20046;-74
2023/12/13 02:43:21;;;;;;;2.85;0.75;;;;;;;8.57;55.72;99335.63;4919745;28;20051;-74
2023/12/13 02:45:49;;;;;;;1.75;0.80;;;;;;;8.58;55.47;99333.75;4940031;28;20067;-74
2023/12/13 02:48:17;;;;;;;2.55;0.90;;;;;;;8.57;55.68;99334.75;4936912;28;20103;-75
2023/12/13 02:50:48;;;;;;;2.85;0.82;;;;;;;8.56;55.77;99330.31;4916930;28;20675;-74
2023/12/13 02:53:16;;;;;;;1.85;0.88;;;;;;;8.58;55.82;99331.03;4933961;29;20040;-74
2023/12/13 02:55:45;;;;;;;2.35;0.90;;;;;;;8.58;55.99;99320.97;4941497;28;20054;-74
2023/12/13 02:58:13;;;;;;;2.33;0.90;;;;;;;8.58;55.99;99329.16;4918435;28;20036;-74
2023/12/13 03:00:41;;;;;;;1.60;0.80;;;;;;;8.58;55.92;99320.13;4931875;28;20052;-75
2023/12/13 03:03:09;;;;;;;3.17;1.45;;;;;;;8.59;56.07;99322.66;4929497;28;20051;-74
2023/12/13 03:05:37;;;;;;;1.63;0.80;;;;;;;8.60;56.07;99323.53;4925924;29;20043;-75
2023/12/13 03:08:05;;;;;;;1.20;0.82;;;;;;;8.60;56.05;99321.66;4938806;28;20043;-74
2023/12/13 03:10:33;;;;;;;2.72;0.90;;;;;;;8.59;55.61;99314.47;4935035;28;20098;-74
2023/12/13 03:13:02;;;;;;;1.60;0.82;;;;;;;8.61;55.79;99311.59;4932655;28;20412;-74
2023/12/13 03:15:31;;;;;;;1.50;0.80;;;;;;;8.59;55.60;99311.75;4920955;28;20538;-75
2023/12/13 03:17:59;;;;;;;2.58;0.80;;;;;;;8.60;56.01;99308.03;4938617;28;20062;-75
2023/12/13 03:20:27;;;;;;;2.00;1.00;;;;;;;8.60;55.65;99308.03;4920382;29;20095;-74
2023/12/13 03:22:55;;;;;;;2.28;1.00;;;;;;;8.60;55.39;99304.44;4936845;28;20465;-75
2023/12/13 03:25:23;;;;;;;3.78;1.00;;;;;;;8.60;55.98;99305.28;4944947;28;20135;-74
2023/12/13 03:27:51;;;;;;;2.85;0.90;;;;;;;8.61;55.90;99303.41;4935298;28;20050;-75
2023/12/13 03:30:20;;;;;;;3.65;0.95;;;;;;;8.62;55.64;99310.59;4917230;28;20047;-74
2023/12/13 03:32:48;;;;;;;4.03;1.35;;;;;;;8.60;56.05;99304.44;4940064;28;20064;-75
2023/12/13 03:35:17;;;;;;;2.13;1.00;;;;;;;8.61;55.48;99304.28;4929818;29;20134;-75
2023/12/13 03:37:45;;;;;;;1.83;0.80;;;;;;;8.62;55.86;99302.41;4939475;28;20449;-75
2023/12/13 03:40:13;;;;;;;5.53;1.58;;;;;;;8.62;55.64;99297.81;4937347;28;20799;-75
2023/12/13 03:42:41;;;;;;;2.55;0.80;;;;;;;8.61;55.89;99296.09;4940421;28;20051;-75
2023/12/13 03:45:10;;;;;;;2.08;0.93;;;;;;;8.63;56.00;99295.94;4927786;28;20450;-74
2023/12/13 03:47:39;;;;;;;2.50;0.95;;;;;;;8.63;55.71;99298.66;4938302;28;20122;-74
2023/12/13 03:50:08;;;;;;;3.42;1.02;;;;;;;8.62;55.58;99292.34;4923993;28;20043;-74
2023/12/13 03:52:36;;;;;;;3.42;0.85;;;;;;;8.63;55.86;99287.75;4929201;28;20050;-75
2023/12/13 03:55:06;;;;;;;2.53;0.95;;;;;;;8.62;55.99;99284.19;4924562;28;20139;-74
2023/12/13 03:57:34;;;;;;;2.40;0.98;;;;;;;8.61;55.95;99284.34;4925040;28;20042;-74
2023/12/13 04:00:02;;;;;;;2.95;1.30;;;;;;;8.62;56.15;99284.19;4943295;28;20043;-74
2023/12/13 04:02:40;;;;;;;2.75;1.17;;;;;;;8.63;55.71;99283.16;4945342;28;20055;-74
2023/12/13 04:05:09;;;;;;;3.30;1.08;;;;;;;8.63;55.84;99285.03;4941334;28;20405;-75
2023/12/13 04:07:37;;;;;;;1.95;1.02;;;;;;;8.63;56.13;99282.31;4941995;28;20042;-75
2023/12/13 04:10:06;;;;;;;3.00;1.00;;;;;;;8.64;56.06;99278.56;4937739;28;20126;-75
2023/12/13 04:12:34;;;;;;;3.25;1.00;;;;;;;8.62;56.32;99278.72;4938864;28;20031;-74
2023/12/13 04:15:02;;;;;;;4.88;1.15;;;;;;;8.61;56.00;99285.19;4942152;28;20070;-75
2023/12/13 04:17:30;;;;;;;2.67;1.00;;;;;;;8.62;56.20;99278.72;4935377;28;20549;-75
2023/12/13 04:20:00;;;;;;;3.08;1.20;;;;;;;8.63;55.70;99272.25;4931924;28;20074;-74
2023/12/13 04:22:27;;;;;;;4.07;1.10;;;;;;;8.62;56.14;99270.53;4918347;29;20047;-74
2023/12/13 04:24:55;;;;;;;2.83;1.10;;;;;;;8.63;56.28;99279.59;4926478;28;20040;-74
2023/12/13 04:27:24;;;;;;;4.47;1.13;;;;;;;8.62;56.26;99270.53;4937422;28;20043;-75
2023/12/13 04:29:51;;;;;;;3.83;1.10;;;;;;;8.63;56.12;99280.44;4943237;28;20052;-74
2023/12/13 04:32:19;;;;;;;3.28;1.17;;;;;;;8.63;56.07;99275.00;4941907;28;20495;-75
2023/12/13 04:34:47;;;;;;;2.33;1.20;;;;;;;8.63;56.29;99274.13;4941284;28;20137;-75
2023/12/13 04:37:17;;;;;;;2.92;1.20;;;;;;;8.65;56.32;99272.09;4939231;28;20051;-74
2023/12/13 04:39:44;;;;;;;3.35;1.23;;;;;;;8.63;55.71;99277.72;4927498;28;20521;-75
2023/12/13 04:42:12;;;;;;;4.05;1.10;;;;;;;8.63;56.39;99272.25;4939676;28;20047;-74
2023/12/13 04:44:40;;;;;;;3.25;1.05;;;;;;;8.63;56.29;99276.84;4942527;28;20051;-74
2023/12/13 04:47:08;;;;;;;2.83;1.23;;;;;;;8.61;56.27;99273.44;4947070;28;20063;-75
2023/12/13 04:49:37;;;;;;;3.72;1.00;;;;;;;8.63;56.07;99275.00;4942722;28;20058;-75
2023/12/13 04:52:06;;;;;;;4.00;1.20;;;;;;;8.64;56.28;99273.13;4935932;28;20054;-75
2023/12/13 04:54:37;;;;;;;5.03;1.15;;;;;;;8.63;56.12;99272.25;4924198;29;20057;-74
2023/12/13 04:57:05;;;;;;;3.55;1.10;;;;;;;8.63;56.29;99274.13;4918513;28;20051;-74
2023/12/13 04:59:33;;;;;;;3.65;1.38;;;;;;;8.63;56.40;99274.13;4949115;28;20122;-74
2023/12/13 05:02:01;;;;;;;4.30;1.20;;;;;;;8.64;56.07;99270.38;4942166;28;20047;-75
2023/12/13 05:04:29;;;;;;;3.13;1.10;;;;;;;8.63;56.11;99266.81;4922429;29;20036;-74
2023/12/13 05:06:57;;;;;;;4.85;1.20;;;;;;;8.63;56.53;99263.22;4942187;28;20050;-75
2023/12/13 05:09:25;;;;;;;3.72;1.30;;;;;;;8.63;56.45;99264.06;4926356;28;20048;-73
2023/12/13 05:11:54;;;;;;;4.28;1.15;;;;;;;8.65;56.30;99264.78;4944002;28;20047;-74
2023/12/13 05:14:22;;;;;;;2.88;1.02;;;;;;;8.63;56.62;99269.53;4928413;28;20083;-75
2023/12/13 05:16:49;;;;;;;3.28;0.95;;;;;;;8.64;56.31;99264.94;4947285;28;20111;-74
2023/12/13 05:19:18;;;;;;;2.95;0.95;;;;;;;8.64;56.40;99262.22;4922902;29;20043;-73
2023/12/13 05:21:46;;;;;;;4.63;1.13;;;;;;;8.64;56.60;99263.06;4924319;28;20131;-73
2023/12/13 05:24:14;;;;;;;3.90;1.20;;;;;;;8.64;56.18;99260.34;4945313;28;20141;-74
2023/12/13 05:26:42;;;;;;;7.13;1.88;;;;;;;8.64;56.38;99257.59;4924825;29;20048;-74
2023/12/13 05:29:12;;;;;;;3.13;1.20;;;;;;;8.66;56.57;99268.38;4919718;28;20050;-74
2023/12/13 05:31:40;;;;;;;3.42;1.10;;;;;;;8.65;56.55;99263.91;4935773;28;20039;-74
2023/12/13 05:34:08;;;;;;;3.50;1.40;;;;;;;8.65;56.41;99266.66;4945424;28;20052;-75
2023/12/13 05:36:36;;;;;;;3.97;1.20;;;;;;;8.65;56.36;99259.31;4944167;28;20058;-75
2023/12/13 05:39:07;;;;;;;4.10;1.10;;;;;;;8.65;56.39;99261.19;4936935;28;20107;-75
2023/12/13 05:41:35;;;;;;;3.70;1.20;;;;;;;8.64;56.72;99260.34;4937507;28;20054;-74
2023/12/13 05:44:03;;;;;;;3.05;1.30;;;;;;;8.64;56.44;99260.34;4932968;28;20082;-74
2023/12/13 05:46:34;;;;;;;3.92;1.20;;;;;;;8.64;56.62;99257.59;4937908;28;20533;-74
2023/12/13 05:49:03;;;;;;;5.30;1.40;;;;;;;8.63;56.33;99258.63;4924266;28;20043;-74
2023/12/13 05:51:31;;;;;;;5.45;1.40;;;;;;;8.61;56.35;99259.78;4936251;28;20046;-74
2023/12/13 05:53:59;;;;;;;2.85;1.40;;;;;;;8.61;56.13;99257.91;4941854;28;20049;-74
2023/12/13 05:56:28;;;;;;;3.28;1.30;;;;;;;8.61;56.57;99254.34;4945487;28;20127;-74
2023/12/13 05:58:56;;;;;;;5.53;1.38;;;;;;;8.60;56.72;99252.63;4923316;28;20047;-74
2023/12/13 06:01:24;;;;;;;3.50;1.27;;;;;;;8.60;56.34;99255.34;4948164;28;20054;-74
2023/12/13 06:03:53;;;;;;;5.05;1.67;;;;;;;8.61;56.70;99255.19;4929687;28;20116;-73
2023/12/13 06:06:21;;;;;;;4.90;1.80;;;;;;;8.60;56.44;99258.94;4929068;28;20047;-73
2023/12/13 06:08:49;;;;;;;4.20;1.60;;;;;;;8.60;56.77;99258.94;4931151;28;20051;-74
2023/12/13 06:11:17;;;;;;;3.78;1.98;;;;;;;8.60;56.59;99269.84;4923781;28;20127;-74
2023/12/13 06:13:45;;;;;;;4.03;1.88;;;;;;;8.61;56.90;99262.50;4927600;28;20542;-74
2023/12/13 06:16:13;;;;;;;5.68;2.40;;;;;;;8.61;56.64;99262.50;4944611;28;20091;-74
2023/12/13 06:18:41;;;;;;;5.65;2.00;;;;;;;8.61;56.66;99267.97;4938761;28;20409;-74
2023/12/13 06:21:19;;;;;;;5.40;2.13;;;;;;;8.63;57.06;99258.63;4950160;23;20043;-83
2023/12/13 07:44:46;;;;;;;6.30;2.20;;;;;;;8.36;56.93;99293.34;4824774;29;20038;-88
2023/12/13 07:50:29;;;;;;;5.72;2.05;;;;;;;8.39;56.78;99296.63;4821221;29;20057;-87
2023/12/13 08:23:06;;;;;;;5.50;2.50;;;;;;;8.29;57.07;99285.81;4867236;29;20063;-86
2023/12/13 08:34:48;;;;;;;6.60;2.13;;;;;;;8.33;56.56;99303.56;4810280;29;20114;-86
2023/12/13 11:39:38;;;;;;;3.65;1.30;;;;;;;8.81;57.21;99375.88;4911758;29;20051;-88
2023/12/13 11:42:08;;;;;;;4.28;2.05;;;;;;;8.85;57.31;99371.78;4905155;29;20079;-74
2023/12/13 11:44:38;;;;;;;5.82;2.25;;;;;;;8.91;56.83;99381.22;4905318;29;20625;-75
2023/12/13 11:47:07;;;;;;;6.60;2.20;;;;;;;8.96;57.26;99371.53;4903922;29;20049;-74
2023/12/13 11:49:37;;;;;;;4.00;1.63;;;;;;;8.99;57.44;99376.69;4903187;29;20054;-75
2023/12/13 11:52:05;;;;;;;7.07;2.30;;;;;;;9.03;56.82;99371.75;4925754;29;20044;-74
2023/12/13 11:54:33;;;;;;;3.85;1.77;;;;;;;9.06;57.23;99374.16;4929809;29;20039;-75
2023/12/13 11:57:13;;;;;;;5.28;1.85;;;;;;;9.13;56.88;99374.38;4930318;29;20134;-74
2023/12/13 11:59:42;;;;;;;4.43;1.80;;;;;;;9.14;57.13;99371.47;4931150;29;20032;-74
2023/12/13 12:02:11;;;;;;;6.75;2.10;;;;;;;9.17;56.84;99379.31;4913975;29;20051;-75
2023/12/13 12:04:39;;;;;;;3.88;1.70;;;;;;;9.19;56.53;99374.56;4934460;29;20039;-74
2023/12/13 12:07:07;;;;;;;4.78;2.30;;;;;;;9.22;57.08;99371.53;4930312;29;20040;-74
2023/12/13 12:09:35;;;;;;;5.90;2.13;;;;;;;9.26;56.62;99374.78;4930830;29;20047;-75
2023/12/13 12:12:05;;;;;;;5.60;2.30;;;;;;;9.30;56.81;99377.03;4926067;29;20040;-74
2023/12/13 12:14:34;;;;;;;6.05;2.00;;;;;;;9.33;56.79;99381.31;4928666;29;20644;-74
2023/12/13 12:17:02;;;;;;;6.43;2.28;;;;;;;9.35;56.32;99373.81;4931789;29;20354;-74
2023/12/13 12:19:31;;;;;;;5.55;2.25;;;;;;;9.37;56.58;99372.63;4931283;29;20501;-75
2023/12/13 12:22:02;;;;;;;4.47;2.15;;;;;;;9.40;56.16;99374.22;4915357;29;21221;-75
2023/12/13 12:24:30;;;;;;;5.55;2.30;;;;;;;9.41;56.83;99378.66;4932618;29;20560;-75
2023/12/13 12:27:08;;;;;;;3.95;1.90;;;;;;;9.46;56.02;99379.88;4928961;29;20044;-75
2023/12/13 12:29:36;;;;;;;5.90;1.95;;;;;;;9.45;56.28;99380.03;4914077;29;20536;-75
2023/12/13 12:32:08;;;;;;;5.05;2.00;;;;;;;9.49;56.22;99378.72;4930206;29;20462;-75
2023/12/13 12:34:37;;;;;;;5.10;1.58;;;;;;;9.50;56.67;99376.81;4927697;29;20493;-74
2023/12/13 12:37:05;;;;;;;4.60;1.95;;;;;;;9.53;56.07;99377.34;4931147;29;20052;-75
2023/12/13 12:39:34;;;;;;;3.45;1.65;;;;;;;9.55;56.39;99378.03;4913251;29;20040;-75
2023/12/13 12:42:03;;;;;;;5.47;2.53;;;;;;;9.56;56.39;99370.72;4926542;29;20051;-75
2023/12/13 12:44:32;;;;;;;6.47;2.55;;;;;;;9.59;56.25;99373.94;4929668;29;20568;-75
2023/12/13 12:47:00;;;;;;;6.35;2.13;;;;;;;9.60;55.79;99377.53;4919735;29;20043;-75
2023/12/13 12:49:29;;;;;;;5.65;2.38;;;;;;;9.62;55.78;99376.38;4915395;29;20047;-75
2023/12/13 12:51:57;;;;;;;5.72;2.17;;;;;;;9.64;55.58;99379.78;4929169;29;20265;-75
2023/12/13 12:54:25;;;;;;;4.65;1.80;;;;;;;9.65;55.74;99378.78;4914362;29;20410;-75
2023/12/13 12:56:53;;;;;;;4.82;1.92;;;;;;;9.67;56.02;99378.59;4929240;29;20060;-74
2023/12/13 12:59:21;;;;;;;5.30;1.92;;;;;;;9.67;55.90;99373.13;4913446;29;20039;-75
2023/12/13 13:01:52;;;;;;;4.03;1.77;;;;;;;9.70;55.75;99372.81;4929566;29;20054;-75
2023/12/13 13:04:20;;;;;;;5.25;2.20;;;;;;;9.68;55.58;99375.69;4920410;29;20058;-75
2023/12/13 13:06:48;;;;;;;4.90;2.10;;;;;;;9.70;55.56;99370.06;4930661;29;20055;-75
2023/12/13 13:09:16;;;;;;;5.43;2.10;;;;;;;9.71;55.66;99374.53;4925585;29;20055;-75
2023/12/13 13:11:45;;;;;;;4.53;2.10;;;;;;;9.72;55.66;99376.25;4929503;29;20083;-75
2023/12/13 13:14:13;;;;;;;3.72;1.75;;;;;;;9.73;55.86;99367.03;4930761;29;20138;-75
2023/12/13 13:16:41;;;;;;;5.78;2.50;;;;;;;9.73;55.66;99378.81;4913540;29;20375;-75
2023/12/13 13:19:12;;;;;;;7.75;2.60;;;;;;;9.76;55.27;99378.47;4906080;29;20475;-75
2023/12/13 13:21:40;;;;;;;6.60;2.28;;;;;;;9.76;55.25;99377.59;4924212;29;20048;-74
2023/12/13 13:24:08;;;;;;;4.45;2.33;;;;;;;9.77;55.33;99384.78;4929487;29;20107;-76
2023/12/13 13:26:36;;;;;;;5.03;2.10;;;;;;;9.77;55.44;99379.31;4927519;29;20051;-75
2023/12/13 13:29:05;;;;;;;5.68;2.15;;;;;;;9.78;55.12;99379.16;4915129;29;20127;-76
2023/12/13 13:31:33;;;;;;;5.70;2.00;;;;;;;9.78;55.21;99376.44;4934594;29;20039;-76
2023/12/13 13:34:01;;;;;;;5.25;2.00;;;;;;;9.79;55.14;99378.16;4934438;29;20501;-76
2023/12/13 13:36:31;;;;;;;5.25;2.25;;;;;;;9.80;55.43;99382.59;4917598;29;20047;-75
2023/12/13 13:38:58;;;;;;;4.72;1.80;;;;;;;9.79;55.37;99380.03;4934312;29;20055;-76
2023/12/13 13:41:28;;;;;;;4.43;1.88;;;;;;;9.80;54.86;99379.00;4916302;29;20055;-75
2023/12/13 13:43:57;;;;;;;7.55;2.53;;;;;;;9.79;54.77;99378.16;4924043;29;20575;-75
2023/12/13 13:46:25;;;;;;;3.65;1.70;;;;;;;9.80;54.77;99387.19;4934217;29;20044;-75
2023/12/13 13:48:55;;;;;;;4.03;1.60;;;;;;;9.79;54.82;99385.47;4916995;29;20444;-75
2023/12/13 13:51:25;;;;;;;4.75;1.70;;;;;;;9.79;55.24;99396.41;4916999;29;20044;-76
2023/12/13 13:53:55;;;;;;;4.40;2.28;;;;;;;9.80;54.86;99388.06;4933940;29;20048;-76
2023/12/13 13:56:26;;;;;;;3.90;1.80;;;;;;;9.78;54.81;99390.09;4917829;29;20439;-77
2023/12/13 13:59:05;;;;;;;5.13;1.98;;;;;;;9.78;55.15;99397.44;4936354;29;20099;-77
2023/12/13 14:01:33;;;;;;;4.15;2.28;;;;;;;9.79;54.70;99397.28;4936302;29;20405;-76
2023/12/13 14:04:02;;;;;;;5.97;2.78;;;;;;;9.79;54.91;99400.00;4918691;29;20043;-77
2023/12/13 14:06:30;;;;;;;4.28;2.28;;;;;;;9.79;54.65;99404.59;4918260;29;20485;-77
2023/12/13 14:09:00;;;;;;;5.00;2.60;;;;;;;9.81;54.82;99408.03;4918694;29;20052;-77
2023/12/13 14:11:30;;;;;;;5.13;2.40;;;;;;;9.79;54.53;99408.19;4918146;29;20044;-77
2023/12/13 14:13:58;;;;;;;4.55;1.98;;;;;;;9.78;54.61;99406.47;4917961;29;20135;-77
2023/12/13 14:16:26;;;;;;;5.70;2.30;;;;;;;9.79;54.79;99412.81;4919090;29;20473;-75
2023/12/13 14:18:54;;;;;;;5.75;1.90;;;;;;;9.79;54.89;99415.53;4918583;29;20048;-75
2023/12/13 14:21:22;;;;;;;4.18;1.75;;;;;;;9.78;54.33;99408.34;4917375;29;20054;-77
2023/12/13 14:23:50;;;;;;;4.10;1.70;;;;;;;9.77;54.60;99412.09;4935877;29;20337;-77
2023/12/13 14:26:19;;;;;;;4.40;1.70;;;;;;;9.78;54.79;99417.41;4919214;29;20438;-77
2023/12/13 14:28:47;;;;;;;6.68;2.20;;;;;;;9.77;54.30;99414.84;4935892;29;20063;-76
2023/12/13 14:31:19;;;;;;;5.47;2.20;;;;;;;9.77;54.63;99423.03;4934945;29;20556;-76
2023/12/13 14:33:47;;;;;;;7.50;2.30;;;;;;;9.76;54.39;99419.44;4935843;29;20146;-77
2023/12/13 14:36:15;;;;;;;5.97;2.00;;;;;;;9.76;54.26;99422.19;4935706;29;20477;-77
2023/12/13 14:38:43;;;;;;;6.07;1.77;;;;;;;9.76;54.74;99415.84;4934994;29;20051;-77
2023/12/13 14:41:11;;;;;;;4.93;1.70;;;;;;;9.76;54.64;99415.84;4934722;29;20509;-77
2023/12/13 14:43:40;;;;;;;5.70;1.60;;;;;;;9.78;54.71;99424.75;4918010;29;20047;-78
2023/12/13 14:46:08;;;;;;;5.57;1.58;;;;;;;9.76;54.37;99430.38;4922299;29;20059;-76
2023/12/13 14:48:37;;;;;;;3.85;1.60;;;;;;;9.76;54.95;99433.09;4917652;29;20050;-76
2023/12/13 14:51:05;;;;;;;4.72;1.80;;;;;;;9.76;54.57;99427.63;4931938;29;20138;-75
2023/12/13 14:53:34;;;;;;;5.10;1.90;;;;;;;9.76;54.79;99435.84;4916818;29;20469;-77
2023/12/13 14:56:02;;;;;;;6.03;1.92;;;;;;;9.77;54.28;99443.00;4915808;29;20143;-76
2023/12/13 14:58:33;;;;;;;5.28;2.13;;;;;;;9.77;54.77;99442.16;4915853;29;20300;-77
2023/12/13 15:01:02;;;;;;;4.22;1.70;;;;;;;9.77;54.53;99448.47;4933343;29;20441;-77
2023/12/13 15:03:34;;;;;;;4.75;2.20;;;;;;;9.77;54.46;99450.34;4918101;29;20565;-77
2023/12/13 15:06:03;;;;;;;4.05;1.55;;;;;;;9.76;54.61;99452.22;4915900;29;20051;-79
2023/12/13 15:08:31;;;;;;;4.40;1.73;;;;;;;9.75;54.14;99457.84;4933807;29;20062;-78
2023/12/13 15:10:59;;;;;;;4.22;1.73;;;;;;;9.76;53.98;99462.28;4929646;29;20040;-76
2023/12/13 15:13:28;;;;;;;5.00;1.67;;;;;;;9.74;54.35;99459.72;4927121;29;20417;-77
2023/12/13 15:15:56;;;;;;;4.60;1.50;;;;;;;9.74;53.81;99457.00;4928036;29;20064;-77
2023/12/13 15:18:27;;;;;;;5.25;1.48;;;;;;;9.76;53.98;99467.75;4943259;29;20066;-76
2023/12/13 15:20:56;;;;;;;4.97;1.70;;;;;;;9.73;54.16;99462.66;4935390;29;20048;-78
2023/12/13 15:23:24;;;;;;;4.18;1.58;;;;;;;9.74;53.68;99469.81;4945054;29;20040;-78
2023/12/13 15:25:52;;;;;;;5.10;1.65;;;;;;;9.72;53.94;99475.44;4918032;29;20048;-76
2023/12/13 15:28:20;;;;;;;4.20;1.60;;;;;;;9.72;54.06;99485.50;4894465;29;20044;-74
2023/12/13 15:30:48;;;;;;;3.65;1.40;;;;;;;9.71;53.66;99481.94;4912094;29;20036;-74
2023/12/13 15:33:17;;;;;;;2.92;1.30;;;;;;;9.71;53.61;99489.25;4910161;29;20056;-75
2023/12/13 15:35:46;;;;;;;5.00;1.58;;;;;;;9.72;53.48;99496.44;4931564;29;20039;-76
2023/12/13 15:38:14;;;;;;;2.42;1.00;;;;;;;9.70;53.33;99499.34;4926189;29;20080;-77
2023/12/13 15:40:42;;;;;;;4.82;1.27;;;;;;;9.69;53.56;99496.75;4910278;29;20420;-77
2023/12/13 15:43:10;;;;;;;2.80;1.10;;;;;;;9.67;53.64;99490.59;4907553;29;20055;-77
2023/12/13 15:45:40;;;;;;;2.70;1.10;;;;;;;9.67;53.73;99493.31;4916117;29;20044;-61
2023/12/13 15:48:08;;;;;;;3.88;1.30;;;;;;;9.66;53.67;99505.28;4904818;29;20075;-61
2023/12/13 15:50:36;;;;;;;2.78;1.08;;;;;;;9.66;53.50;99508.84;4913714;29;20371;-73
2023/12/13 15:53:07;;;;;;;3.42;1.13;;;;;;;9.66;53.52;99503.38;4903051;29;20430;-76
2023/12/13 15:55:36;;;;;;;4.45;1.17;;;;;;;9.64;53.31;99512.78;4915335;28;20509;-76
2023/12/13 15:58:04;;;;;;;3.97;1.27;;;;;;;9.65;53.31;99511.78;4910731;29;20040;-76
2023/12/13 16:00:32;;;;;;;3.70;1.55;;;;;;;9.65;53.40;99523.56;4911365;29;20123;-77
2023/12/13 16:03:00;;;;;;;3.35;1.10;;;;;;;9.64;53.12;99516.38;4912168;29;20135;-77
2023/12/13 16:05:28;;;;;;;2.53;0.95;;;;;;;9.64;53.32;99531.91;4914783;29;20044;-76
2023/12/13 16:07:56;;;;;;;2.85;1.13;;;;;;;9.64;53.19;99531.91;4907062;29;20037;-77
2023/12/13 16:10:25;;;;;;;2.42;1.15;;;;;;;9.63;53.35;99528.31;4914443;29;20048;-77
2023/12/13 16:12:53;;;;;;;3.45;1.30;;;;;;;9.62;53.26;99543.00;4913480;29;20838;-77
2023/12/13 16:15:23;;;;;;;2.75;1.20;;;;;;;9.61;53.41;99541.28;4891981;29;20049;-76
2023/12/13 16:17:51;;;;;;;3.67;1.52;;;;;;;9.61;53.61;99541.28;4890892;29;20060;-77
2023/12/13 16:20:21;;;;;;;4.05;1.40;;;;;;;9.59;53.58;99547.91;4914951;29;20123;-75
2023/12/13 16:22:49;;;;;;;3.83;1.48;;;;;;;9.59;53.59;99556.97;4909593;29;20044;-76
2023/12/13 16:25:17;;;;;;;2.83;1.50;;;;;;;9.59;53.67;99556.09;4914915;29;20048;-76
2023/12/13 16:27:46;;;;;;;3.05;1.60;;;;;;;9.58;53.45;99563.44;4907750;29;20055;-77
2023/12/13 16:30:15;;;;;;;4.70;1.70;;;;;;;9.55;53.63;99558.31;4919497;29;20044;-78
2023/12/13 16:32:43;;;;;;;4.95;1.80;;;;;;;9.55;53.44;99562.91;4912611;29;20040;-77
2023/12/13 16:35:13;;;;;;;5.72;1.70;;;;;;;9.54;53.82;99561.19;4915504;29;21531;-77
2023/12/13 16:37:41;;;;;;;4.88;1.77;;;;;;;9.52;53.95;99566.81;4907841;29;20063;-77
2023/12/13 16:40:10;;;;;;;5.05;2.58;;;;;;;9.53;53.84;99567.66;4906953;29;20095;-77
2023/12/13 16:42:39;;;;;;;6.38;2.63;;;;;;;9.51;53.49;99567.81;4911125;29;20390;-77
2023/12/13 16:45:09;;;;;;;8.38;3.80;;;;;;;9.53;53.79;99578.59;4917740;29;20509;-76
2023/12/13 16:47:37;;;;;;;8.63;4.20;;;;;;;9.50;54.08;99585.22;4914202;29;20040;-79
2023/12/13 16:50:07;;;;;;;11.90;4.80;;;;;;;9.50;53.56;99584.34;4899238;29;20044;-77
2023/12/13 16:52:35;;;;;;;12.57;5.30;;;;;;;9.50;54.03;99589.81;4912926;29;20037;-77
2023/12/13 16:55:04;;;;;;;11.23;5.22;;;;;;;9.50;53.84;99592.56;4897577;29;20037;-77